createdAt,value
2019-04-26T00:01:02.973Z,70.95
2019-04-26T00:06:19.408Z,70.60
2019-04-26T00:09:05.616Z,70.70
2019-04-26T00:11:45.914Z,70.58
2019-04-26T00:14:17.060Z,70.52
2019-04-26T00:16:53.788Z,70.89
2019-04-26T00:19:23.513Z,70.84
2019-04-26T00:21:53.187Z,70.87
2019-04-26T00:24:22.860Z,70.75
2019-04-26T00:26:52.192Z,71.02
2019-04-26T00:29:21.591Z,70.71
2019-04-26T00:31:51.044Z,70.55
2019-04-26T00:34:20.412Z,70.56
2019-04-26T00:36:49.792Z,71.11
2019-04-26T00:39:20.257Z,71.30
2019-04-26T00:41:50.464Z,71.12
2019-04-26T00:44:20.894Z,71.22
2019-04-26T00:46:53.500Z,71.19
2019-04-26T00:49:23.476Z,71.62
2019-04-26T00:51:53.317Z,71.47
2019-04-26T00:54:24.394Z,71.54
2019-04-26T00:56:55.095Z,71.70
2019-04-26T00:59:24.753Z,72.14
2019-04-26T01:01:58.863Z,72.10
2019-04-26T01:04:28.372Z,72.27
2019-04-26T01:06:59.452Z,72.09
2019-04-26T01:09:28.916Z,72.29
2019-04-26T01:11:58.280Z,72.44
2019-04-26T01:14:27.652Z,72.31
2019-04-26T01:16:57.105Z,72.48
2019-04-26T01:19:27.268Z,72.45
2019-04-26T01:22:02.348Z,72.58
2019-04-26T01:24:34.618Z,72.33
2019-04-26T01:27:05.698Z,72.94
2019-04-26T01:29:37.330Z,72.66
2019-04-26T01:32:09.611Z,72.48
2019-04-26T01:34:41.707Z,72.22
2019-04-26T01:37:11.794Z,72.67
2019-04-26T01:39:45.862Z,72.59
2019-04-26T01:42:17.458Z,72.57
2019-04-26T01:45:00.280Z,72.46
2019-04-26T01:47:30.320Z,72.98
2019-04-26T01:49:59.771Z,73.12
2019-04-26T01:52:29.702Z,73.58
2019-04-26T01:54:59.206Z,73.44
2019-04-26T01:57:30.085Z,73.69
2019-04-26T02:00:01.089Z,73.76
2019-04-26T02:02:35.037Z,74.41
2019-04-26T02:05:07.055Z,74.37
2019-04-26T02:07:38.168Z,74.80
2019-04-26T02:10:28.693Z,74.77
2019-04-26T02:12:59.530Z,74.93
2019-04-26T02:15:31.864Z,74.85
2019-04-26T02:18:01.611Z,74.23
2019-04-26T02:23:37.297Z,74.91
2019-04-26T02:26:26.534Z,74.51
2019-04-26T02:28:56.097Z,74.34
2019-04-26T02:31:27.272Z,74.13
2019-04-26T02:33:57.253Z,74.56
2019-04-26T02:36:45.259Z,74.12
2019-04-26T02:39:00.832Z,73.82
2019-04-26T02:41:33.134Z,73.82
2019-04-26T02:44:05.534Z,73.86
2019-04-26T02:46:42.217Z,74.32
2019-04-26T02:49:19.135Z,73.92
2019-04-26T02:52:11.953Z,74.25
2019-04-26T02:55:12.214Z,74.49
2019-04-26T02:57:44.562Z,74.37
2019-04-26T03:00:16.463Z,74.27
2019-04-26T03:02:48.780Z,74.82
2019-04-26T03:05:19.934Z,74.76
2019-04-26T03:07:54.908Z,74.40
2019-04-26T03:10:35.979Z,74.50
2019-04-26T03:13:08.242Z,74.73
2019-04-26T03:15:42.663Z,75.00
2019-04-26T03:18:33.466Z,74.72
2019-04-26T03:21:15.804Z,74.77
2019-04-26T03:23:58.253Z,74.29
2019-04-26T03:26:25.052Z,74.65
2019-04-26T03:29:06.003Z,74.96
2019-04-26T03:31:45.670Z,74.90
2019-04-26T03:34:14.420Z,74.64
2019-04-26T03:37:32.565Z,74.93
2019-04-26T03:40:13.617Z,74.17
2019-04-26T03:43:06.614Z,74.70
2019-04-26T03:46:04.565Z,74.94
2019-04-26T03:52:03.385Z,73.98
2019-04-26T03:54:37.267Z,73.73
2019-04-26T03:57:36.228Z,73.89
2019-04-26T04:00:14.915Z,73.19
2019-04-26T04:02:48.819Z,72.74
2019-04-26T04:05:28.482Z,72.19
2019-04-26T04:08:00.771Z,71.29
2019-04-26T04:10:40.028Z,70.48
2019-04-26T04:13:23.418Z,69.95
2019-04-26T04:15:53.940Z,69.60
2019-04-26T04:18:47.632Z,69.09
2019-04-26T04:21:44.513Z,69.17
2019-04-26T04:24:16.692Z,68.63
2019-04-26T04:26:48.979Z,68.40
2019-04-26T04:29:46.392Z,67.93
2019-04-26T04:32:35.621Z,67.87
2019-04-26T04:35:13.119Z,67.15
2019-04-26T04:38:08.535Z,67.07
2019-04-26T04:40:35.242Z,67.01
2019-04-26T04:43:21.119Z,67.34
2019-04-26T04:46:10.369Z,67.67
2019-04-26T04:49:06.944Z,66.93
2019-04-26T04:52:11.192Z,66.70
2019-04-26T04:55:06.622Z,66.35
2019-04-26T04:57:35.643Z,65.41
2019-04-26T05:00:12.107Z,65.43
2019-04-26T05:02:55.122Z,64.78
2019-04-26T05:06:06.662Z,63.35
2019-04-26T05:08:45.575Z,62.53
2019-04-26T05:11:22.256Z,62.00
2019-04-26T05:14:12.579Z,61.27
2019-04-26T05:17:16.574Z,60.02
2019-04-26T05:20:03.654Z,59.30
2019-04-26T05:22:51.171Z,59.18
2019-04-26T05:25:46.875Z,58.11
2019-04-26T05:28:44.003Z,57.10
2019-04-26T05:31:37.524Z,56.51
2019-04-26T05:34:34.169Z,57.22
2019-04-26T05:37:18.341Z,55.71
2019-04-26T05:39:58.142Z,55.98
2019-04-26T05:43:10.886Z,55.78
2019-04-26T05:46:11.791Z,55.17
2019-04-26T05:48:45.974Z,53.50
2019-04-26T05:51:43.878Z,53.46
2019-04-26T05:58:02.787Z,52.30
2019-04-26T06:00:39.851Z,52.18
2019-04-26T06:03:20.016Z,51.94
2019-04-26T06:06:08.914Z,51.03
2019-04-26T06:09:01.777Z,50.01
2019-04-26T06:11:41.508Z,49.60
2019-04-26T06:14:37.571Z,49.66
2019-04-26T06:17:23.217Z,52.62
2019-04-26T06:20:22.829Z,51.69
2019-04-26T06:23:02.673Z,52.29
2019-04-26T06:25:48.865Z,51.57
2019-04-26T06:28:27.320Z,50.95
2019-04-26T06:31:14.778Z,49.75
2019-04-26T06:33:47.056Z,50.63
2019-04-26T06:36:23.954Z,51.63
2019-04-26T06:39:04.197Z,52.21
2019-04-26T06:41:40.781Z,52.06
2019-04-26T06:44:23.303Z,51.10
2019-04-26T06:47:28.359Z,51.98
2019-04-26T06:50:15.019Z,52.18
2019-04-26T06:52:59.629Z,53.38
2019-04-26T06:55:36.453Z,51.48
2019-04-26T06:58:33.139Z,50.69
2019-04-26T07:01:31.237Z,51.21
2019-04-26T07:04:15.883Z,50.05
2019-04-26T07:07:04.603Z,50.37
2019-04-26T07:09:49.002Z,50.12
2019-04-26T07:15:34.823Z,47.48
2019-04-26T07:18:15.789Z,48.69
2019-04-26T07:21:10.852Z,49.00
2019-04-26T07:23:53.505Z,48.95
2019-04-26T07:26:57.577Z,47.83
2019-04-26T07:29:46.833Z,48.08
2019-04-26T07:32:22.218Z,48.30
2019-04-26T07:35:05.292Z,46.44
2019-04-26T07:37:43.801Z,45.14
2019-04-26T07:40:50.476Z,45.21
2019-04-26T07:43:30.235Z,45.21
2019-04-26T07:46:19.240Z,44.91
2019-04-26T07:49:10.574Z,44.91
2019-04-26T07:52:06.408Z,44.92
2019-04-26T07:54:53.960Z,43.60
2019-04-26T07:57:43.118Z,43.60
2019-04-26T08:00:18.525Z,44.25
2019-04-26T08:02:55.184Z,47.07
2019-04-26T08:05:46.975Z,47.07
2019-04-26T08:08:22.528Z,44.24
2019-04-26T08:11:06.969Z,45.10
2019-04-26T08:13:39.448Z,43.86
2019-04-26T08:16:25.561Z,43.86
2019-04-26T08:19:06.883Z,43.55
2019-04-26T08:21:47.907Z,42.49
2019-04-26T08:24:28.314Z,41.00
2019-04-26T08:27:21.156Z,44.16
2019-04-26T08:29:47.977Z,40.58
2019-04-26T08:32:21.709Z,40.58
2019-04-26T08:37:54.510Z,41.95
2019-04-26T08:40:31.069Z,41.95
2019-04-26T08:43:18.202Z,41.77
2019-04-26T08:46:03.237Z,40.04
2019-04-26T08:48:40.490Z,40.62
2019-04-26T08:51:20.570Z,40.62
2019-04-26T08:53:51.275Z,41.38
2019-04-26T08:56:23.512Z,41.04
2019-04-26T08:58:55.600Z,41.70
2019-04-26T09:01:34.130Z,41.70
2019-04-26T09:04:19.950Z,42.21
2019-04-26T09:07:02.617Z,41.66
2019-04-26T09:09:34.695Z,41.81
2019-04-26T09:12:08.269Z,41.19
2019-04-26T09:14:43.436Z,43.93
2019-04-26T09:17:12.772Z,43.74
2019-04-26T09:19:42.130Z,40.22
2019-04-26T09:22:28.820Z,38.61
2019-04-26T09:25:05.967Z,38.61
2019-04-26T09:27:48.887Z,39.63
2019-04-26T09:30:33.304Z,39.85
2019-04-26T09:33:02.020Z,41.28
2019-04-26T09:35:35.616Z,39.94
2019-04-26T09:38:09.603Z,41.87
2019-04-26T09:40:43.427Z,40.35
2019-04-26T09:43:24.175Z,39.92
2019-04-26T09:46:20.909Z,42.52
2019-04-26T09:48:32.207Z,41.00
2019-04-26T09:54:01.462Z,39.66
2019-04-26T09:56:33.894Z,38.09
2019-04-26T09:59:05.592Z,38.97
2019-04-26T10:01:35.008Z,38.77
2019-04-26T10:06:55.623Z,38.60
2019-04-26T10:09:30.880Z,36.29
2019-04-26T10:12:00.586Z,37.99
2019-04-26T10:14:39.493Z,38.36
2019-04-26T10:17:17.496Z,37.80
2019-04-26T10:19:51.133Z,39.63
2019-04-26T10:22:23.315Z,41.11
2019-04-26T10:27:42.393Z,39.09
2019-04-26T10:30:16.656Z,39.44
2019-04-26T10:32:49.755Z,38.97
2019-04-26T10:35:21.618Z,39.83
2019-04-26T10:37:53.786Z,39.59
2019-04-26T10:40:34.814Z,38.26
2019-04-26T10:42:58.096Z,39.06
2019-04-26T10:45:28.082Z,39.20
2019-04-26T10:47:58.989Z,35.84
2019-04-26T10:50:32.988Z,38.93
2019-04-26T10:53:12.255Z,37.54
2019-04-26T10:56:02.639Z,37.30
2019-04-26T10:58:39.723Z,39.45
2019-04-26T11:01:13.983Z,36.88
2019-04-26T11:03:43.072Z,37.75
2019-04-26T11:06:12.136Z,37.74
2019-04-26T11:08:41.224Z,37.57
2019-04-26T11:11:34.073Z,37.12
2019-04-26T11:14:00.496Z,38.69
2019-04-26T11:19:02.254Z,36.55
2019-04-26T11:21:31.810Z,35.87
2019-04-26T11:24:05.772Z,36.73
2019-04-26T11:27:00.899Z,35.75
2019-04-26T11:29:20.431Z,35.93
2019-04-26T11:31:49.814Z,35.86
2019-04-26T11:34:28.021Z,37.05
2019-04-26T11:37:08.231Z,35.94
2019-04-26T11:39:44.935Z,35.78
2019-04-26T11:42:35.477Z,34.43
2019-04-26T11:45:14.619Z,33.78
2019-04-26T11:47:54.359Z,33.86
2019-04-26T11:50:16.466Z,35.88
2019-04-26T11:52:57.594Z,34.34
2019-04-26T12:03:59.452Z,35.72
2019-04-26T12:06:48.003Z,34.60
2019-04-26T12:09:19.276Z,35.28
2019-04-26T12:12:04.357Z,34.66
2019-04-26T12:14:33.397Z,34.03
2019-04-26T12:20:29.417Z,35.84
2019-04-26T12:23:05.830Z,35.51
2019-04-26T12:25:43.156Z,34.58
2019-04-26T12:28:10.709Z,35.49
2019-04-26T12:31:10.956Z,35.19
2019-04-26T12:34:19.344Z,34.99
2019-04-26T12:36:05.038Z,36.03
2019-04-26T12:38:36.091Z,35.47
2019-04-26T12:41:11.432Z,35.22
2019-04-26T12:43:46.251Z,34.80
2019-04-26T12:48:58.777Z,33.57
2019-04-26T12:51:38.196Z,33.47
2019-04-26T12:54:18.341Z,33.37
2019-04-26T12:57:01.499Z,34.40
2019-04-26T12:59:43.955Z,33.44
2019-04-26T13:02:07.837Z,33.13
2019-04-26T13:04:48.804Z,33.87
2019-04-26T13:07:24.343Z,32.90
2019-04-26T13:12:57.560Z,32.74
2019-04-26T13:15:58.825Z,32.68
2019-04-26T13:18:27.978Z,31.41
2019-04-26T13:20:58.624Z,31.44
2019-04-26T13:23:29.911Z,32.18
2019-04-26T13:26:03.679Z,31.70
2019-04-26T13:31:31.419Z,32.79
2019-04-26T13:36:54.279Z,32.63
2019-04-26T13:39:31.189Z,32.80
2019-04-26T13:42:09.527Z,33.45
2019-04-26T13:45:23.625Z,32.29
2019-04-26T13:47:44.937Z,33.00
2019-04-26T13:50:37.390Z,30.64
2019-04-26T13:53:12.607Z,31.71
2019-04-26T13:55:52.286Z,31.71
2019-04-26T13:58:20.806Z,31.85
2019-04-26T14:00:51.794Z,32.93
2019-04-26T14:03:27.194Z,33.60
2019-04-26T14:06:04.219Z,31.66
2019-04-26T14:14:23.080Z,32.80
2019-04-26T14:16:58.540Z,32.17
2019-04-26T14:19:52.880Z,32.84
2019-04-26T14:22:29.823Z,32.24
2019-04-26T14:25:12.955Z,31.85
2019-04-26T14:27:49.803Z,32.08
2019-04-26T14:30:37.455Z,32.84
2019-04-26T14:33:13.924Z,33.06
2019-04-26T14:35:59.117Z,33.46
2019-04-26T14:38:41.845Z,33.68
2019-04-26T14:44:49.328Z,34.36
2019-04-26T14:47:26.424Z,34.76
2019-04-26T14:49:59.005Z,34.13
2019-04-26T14:52:35.515Z,35.02
2019-04-26T14:55:08.760Z,35.62
2019-04-26T14:57:42.789Z,36.08
2019-04-26T15:00:21.298Z,36.04
2019-04-26T15:05:57.160Z,37.19
2019-04-26T15:08:34.711Z,38.25
2019-04-26T15:11:12.855Z,38.97
2019-04-26T15:13:47.016Z,39.32
2019-04-26T15:16:17.398Z,40.12
2019-04-26T15:18:52.617Z,40.75
2019-04-26T15:21:31.010Z,40.17
2019-04-26T15:24:04.963Z,39.65
2019-04-26T15:27:01.852Z,38.44
2019-04-26T15:29:34.635Z,38.85
2019-04-26T15:32:08.433Z,39.73
2019-04-26T15:34:41.016Z,39.07
2019-04-26T15:37:16.022Z,39.31
2019-04-26T15:39:50.324Z,40.03
2019-04-26T15:42:23.777Z,40.00
2019-04-26T15:44:57.411Z,40.85
2019-04-26T15:47:28.268Z,40.45
2019-04-26T15:50:05.587Z,41.41
2019-04-26T15:52:34.106Z,41.25
2019-04-26T15:55:07.387Z,41.60
2019-04-26T15:57:36.944Z,42.53
2019-04-26T16:00:07.508Z,43.00
2019-04-26T16:02:38.340Z,43.84
2019-04-26T16:05:12.337Z,43.84
2019-04-26T16:07:43.002Z,44.35
2019-04-26T16:10:12.628Z,44.18
2019-04-26T16:12:45.519Z,43.81
2019-04-26T16:15:16.445Z,43.98
2019-04-26T16:17:46.038Z,43.98
2019-04-26T16:20:15.983Z,44.21
2019-04-26T16:22:45.758Z,44.30
2019-04-26T16:28:22.832Z,44.76
2019-04-26T16:31:10.983Z,45.43
2019-04-26T16:33:44.884Z,45.99
2019-04-26T16:36:16.982Z,45.99
2019-04-26T16:38:48.618Z,46.53
2019-04-26T16:41:21.837Z,46.53
2019-04-26T16:43:53.195Z,46.58
2019-04-26T16:46:24.860Z,47.49
2019-04-26T16:49:01.583Z,48.85
2019-04-26T16:51:25.583Z,48.38
2019-04-26T16:54:06.707Z,48.75
2019-04-26T16:56:28.894Z,49.82
2019-04-26T16:59:01.116Z,49.82
2019-04-26T17:01:33.404Z,49.47
2019-04-26T17:04:04.151Z,49.93
2019-04-26T17:06:34.769Z,49.95
2019-04-26T17:09:06.282Z,50.70
2019-04-26T17:11:41.095Z,51.01
2019-04-26T17:14:10.076Z,51.17
2019-04-26T17:16:39.113Z,52.09
2019-04-26T17:19:08.644Z,52.01
2019-04-26T17:21:39.807Z,51.98
2019-04-26T17:24:16.770Z,52.26
2019-04-26T17:26:50.927Z,52.05
2019-04-26T17:29:20.510Z,52.35
2019-04-26T17:31:53.187Z,52.34
2019-04-26T17:34:29.118Z,53.10
2019-04-26T17:36:55.663Z,53.24
2019-04-26T17:39:28.136Z,53.56
2019-04-26T17:41:57.633Z,53.78
2019-04-26T17:44:31.093Z,53.76
2019-04-26T17:47:02.855Z,54.16
2019-04-26T17:49:38.020Z,54.19
2019-04-26T17:52:12.988Z,54.07
2019-04-26T17:54:54.676Z,54.33
2019-04-26T17:57:36.015Z,54.33
2019-04-26T18:00:07.815Z,54.41
2019-04-26T18:02:41.788Z,54.74
2019-04-26T18:05:05.868Z,54.75
2019-04-26T18:07:43.340Z,55.03
2019-04-26T18:10:08.351Z,55.56
2019-04-26T18:12:41.838Z,55.24
2019-04-26T18:15:17.263Z,55.70
2019-04-26T18:17:44.744Z,56.13
2019-04-26T18:20:37.475Z,56.43
2019-04-26T18:23:17.007Z,56.43
2019-04-26T18:25:48.047Z,56.15
2019-04-26T18:28:22.673Z,56.37
2019-04-26T18:30:53.128Z,56.84
2019-04-26T18:33:26.000Z,56.84
2019-04-26T18:35:57.499Z,57.06
2019-04-26T18:38:25.357Z,58.01
2019-04-26T18:41:00.774Z,57.96
2019-04-26T18:43:26.063Z,58.36
2019-04-26T18:45:58.687Z,58.73
2019-04-26T18:48:28.257Z,59.00
2019-04-26T18:50:57.822Z,59.34
2019-04-26T18:53:39.367Z,59.41
2019-04-26T18:56:12.668Z,59.50
2019-04-26T18:58:42.320Z,59.80
2019-04-26T19:01:13.646Z,60.25
2019-04-26T19:03:43.711Z,60.41
2019-04-26T19:06:27.017Z,60.44
2019-04-26T19:08:49.799Z,60.80
2019-04-26T19:11:15.827Z,60.98
2019-04-26T19:13:48.033Z,61.68
2019-04-26T19:16:36.000Z,61.84
2019-04-26T19:19:07.138Z,61.96
2019-04-26T19:21:40.286Z,62.42
2019-04-26T19:24:17.283Z,62.42
2019-04-26T19:26:44.190Z,63.07
2019-04-26T19:29:17.741Z,63.17
2019-04-26T19:31:43.029Z,63.43
2019-04-26T19:34:12.463Z,63.48
2019-04-26T19:36:43.545Z,63.58
2019-04-26T19:39:14.001Z,63.73
2019-04-26T19:41:43.468Z,63.89
2019-04-26T19:44:14.621Z,63.48
2019-04-26T19:47:04.893Z,63.57
2019-04-26T19:49:50.292Z,63.22
2019-04-26T19:52:39.360Z,63.32
2019-04-26T19:55:24.646Z,63.61
2019-04-26T19:57:58.408Z,63.59
2019-04-26T20:00:28.022Z,63.86
2019-04-26T20:02:57.429Z,63.79
2019-04-26T20:05:26.865Z,64.39
2019-04-26T20:07:58.437Z,64.23
2019-04-26T20:10:27.547Z,64.27
2019-04-26T20:12:57.073Z,64.48
2019-04-26T20:15:28.613Z,64.59
2019-04-26T20:17:59.944Z,64.79
2019-04-26T20:20:34.611Z,64.99
2019-04-26T20:23:05.791Z,65.11
2019-04-26T20:25:31.331Z,65.38
2019-04-26T20:28:03.097Z,65.68
2019-04-26T20:30:51.506Z,65.51
2019-04-26T20:33:22.374Z,65.64
2019-04-26T20:35:51.976Z,66.24
2019-04-26T20:38:21.488Z,65.77
2019-04-26T20:40:53.361Z,66.49
2019-04-26T20:43:26.392Z,66.28
2019-04-26T20:46:10.905Z,65.98
2019-04-26T20:48:29.802Z,65.93
2019-04-26T20:50:55.950Z,65.81
2019-04-26T20:53:25.341Z,65.94
2019-04-26T20:55:54.744Z,65.82
2019-04-26T20:58:24.180Z,65.73
2019-04-26T21:00:54.697Z,65.60
2019-04-26T21:03:27.657Z,65.25
2019-04-26T21:05:58.992Z,65.64
2019-04-26T21:08:27.035Z,66.36
2019-04-26T21:11:00.219Z,66.45
2019-04-26T21:13:30.677Z,66.75
2019-04-26T21:16:03.411Z,66.98
2019-04-26T21:18:33.782Z,67.32
2019-04-26T21:21:01.565Z,67.00
2019-04-26T21:23:33.841Z,67.36
2019-04-26T21:26:07.109Z,66.90
2019-04-26T21:28:38.023Z,67.03
2019-04-26T21:31:12.483Z,67.10
2019-04-26T21:33:43.519Z,67.39
2019-04-26T21:36:14.546Z,67.25
2019-04-26T21:38:45.567Z,67.07
2019-04-26T21:41:16.597Z,66.55
2019-04-26T21:43:46.037Z,66.02
2019-04-26T21:46:19.213Z,65.92
2019-04-26T21:48:46.987Z,66.22
2019-04-26T21:51:16.386Z,66.06
2019-04-26T21:53:45.731Z,66.11
2019-04-26T21:56:15.107Z,65.81
2019-04-26T21:58:46.077Z,65.59
2019-04-26T22:01:19.226Z,65.20
2019-04-26T22:03:54.411Z,65.00
2019-04-26T22:06:24.514Z,65.04
2019-04-26T22:09:02.426Z,65.57
2019-04-26T22:11:30.189Z,65.48
2019-04-26T22:14:02.933Z,65.88
2019-04-26T22:16:38.064Z,65.54
2019-04-26T22:19:21.480Z,65.20
2019-04-26T22:21:54.169Z,64.99
2019-04-26T22:24:31.165Z,64.80
2019-04-26T22:27:00.726Z,65.23
2019-04-26T22:29:30.105Z,65.82
2019-04-26T22:31:59.667Z,65.56
2019-04-26T22:34:29.222Z,65.03
2019-04-26T22:37:01.766Z,65.02
2019-04-26T22:39:34.539Z,64.77
2019-04-26T22:42:02.691Z,65.36
2019-04-26T22:44:34.645Z,64.51
2019-04-26T22:47:08.862Z,64.20
2019-04-26T22:49:41.760Z,64.25
2019-04-26T22:52:11.166Z,63.95
2019-04-26T22:54:42.888Z,64.11
2019-04-26T22:57:13.126Z,63.71
2019-04-26T22:59:49.520Z,63.15
2019-04-26T23:02:18.392Z,62.66
2019-04-26T23:04:46.141Z,63.02
2019-04-26T23:07:18.408Z,62.49
2019-04-26T23:09:51.816Z,62.15
2019-04-26T23:12:28.301Z,62.39
2019-04-26T23:14:59.603Z,61.99
2019-04-26T23:17:39.956Z,61.72
2019-04-26T23:20:29.229Z,61.84
2019-04-26T23:23:00.535Z,62.06
2019-04-26T23:25:31.147Z,62.00
2019-04-26T23:27:59.514Z,61.96
2019-04-26T23:30:31.874Z,62.26
2019-04-26T23:33:00.050Z,62.79
2019-04-26T23:35:29.489Z,62.89
2019-04-26T23:38:00.913Z,62.69
2019-04-26T23:40:29.963Z,62.96
2019-04-26T23:42:59.356Z,62.80
2019-04-26T23:45:28.775Z,62.66
2019-04-26T23:47:58.182Z,62.69
2019-04-26T23:50:29.422Z,63.30
2019-04-26T23:52:58.697Z,62.63
2019-04-26T23:55:28.139Z,63.18
2019-04-26T23:57:57.511Z,62.25
